Time;durP1;ratioP1;P1;durP2;ratioP2;P2;SDS_P1;SDS_P2;PMS_P1;PMS_P2;Temp;Humidity;BMP_temperature;BMP_pressure;BME280_temperature;BME280_humidity;BME280_pressure;Samples;Min_cycle;Max_cycle;Signal;HPM_P1;HPM_P2
2024/02/09 00:02:19;;;;;;;;;0.00;0.00;;;;;15.39;100.00;98468.63;5070316;28;54943;-82
2024/02/09 00:04:44;;;;;;;;;0.00;0.00;;;;;15.37;100.00;98483.66;5071011;28;28379;-82
2024/02/09 00:07:10;;;;;;;;;0.00;0.00;;;;;15.29;100.00;98477.28;5058892;28;42528;-82
2024/02/09 00:09:35;;;;;;;;;0.00;0.00;;;;;15.14;100.00;98470.72;5048607;28;57993;-82
2024/02/09 00:12:01;;;;;;;;;0.00;0.00;;;;;15.13;100.00;98479.50;5048918;28;53990;-82
2024/02/09 00:14:27;;;;;;;;;0.00;0.00;;;;;15.23;100.00;98485.66;5050858;28;27956;-81
2024/02/09 00:16:53;;;;;;;;;0.00;0.00;;;;;15.19;100.00;98467.69;5051761;28;29192;-81
2024/02/09 00:19:18;;;;;;;;;0.00;0.00;;;;;15.21;100.00;98456.13;5062420;28;50472;-81
2024/02/09 00:21:43;;;;;;;;;0.00;0.00;;;;;15.25;100.00;98438.34;5069139;28;52902;-82
2024/02/09 00:24:09;;;;;;;;;0.00;0.00;;;;;15.19;100.00;98471.16;5070580;28;28401;-82
2024/02/09 00:26:34;;;;;;;;;0.00;0.00;;;;;15.16;100.00;98476.66;5069999;28;59455;-82
2024/02/09 00:29:01;;;;;;;;;0.00;0.00;;;;;15.16;100.00;98481.88;5070947;28;28661;-82
2024/02/09 00:31:26;;;;;;;;;0.00;0.00;;;;;15.23;100.00;98445.50;5071067;28;28446;-82
2024/02/09 00:33:52;;;;;;;;;0.00;0.00;;;;;15.27;100.00;98473.94;5052497;28;28578;-82
2024/02/09 00:36:18;;;;;;;;;0.00;0.00;;;;;15.29;100.00;98429.28;5069788;28;29213;-82
2024/02/09 00:38:43;;;;;;;;;1.00;1.00;;;;;15.24;100.00;98442.75;5068585;28;28415;-81
2024/02/09 00:41:11;;;;;;;;;0.00;0.00;;;;;15.24;100.00;98465.50;5070184;28;36318;-81
2024/02/09 00:43:36;;;;;;;;;0.00;0.00;;;;;15.39;100.00;98430.13;5072788;28;28393;-82
2024/02/09 00:46:01;;;;;;;;;0.00;0.00;;;;;15.33;100.00;98450.81;5073854;28;28377;-82
2024/02/09 00:48:27;;;;;;;;;0.00;0.00;;;;;15.19;100.00;98439.72;5074075;28;28439;-81
2024/02/09 00:50:52;;;;;;;;;0.00;0.00;;;;;15.19;100.00;98460.69;5073100;28;54083;-82
2024/02/09 00:53:18;;;;;;;;;0.00;0.00;;;;;15.19;100.00;98450.19;5074201;28;28415;-82
2024/02/09 00:55:43;;;;;;;;;0.00;0.00;;;;;15.30;100.00;98444.00;5071809;28;58878;-81
2024/02/09 00:58:09;;;;;;;;;0.00;0.00;;;;;15.32;100.00;98415.88;5072901;28;57248;-81
2024/02/09 01:00:35;;;;;;;;;0.00;0.00;;;;;15.32;100.00;98436.03;5072517;28;55944;-81
2024/02/09 01:03:03;;;;;;;;;0.00;0.00;;;;;15.24;100.00;98434.06;5072887;28;28357;-82
2024/02/09 01:05:29;;;;;;;;;0.00;0.00;;;;;15.31;100.00;98419.47;5072614;28;28350;-81
2024/02/09 01:07:55;;;;;;;;;0.00;0.00;;;;;15.35;100.00;98418.25;5073440;28;28380;-82
2024/02/09 01:10:20;;;;;;;;;0.00;0.00;;;;;15.65;100.00;98404.28;5068253;28;55238;-81
2024/02/09 02:45:48;;;;;;;;;0.00;0.00;;;;;15.32;100.00;98302.34;5057428;28;72071;-83
2024/02/09 03:04:37;;;;;;;;;0.00;0.00;;;;;15.15;100.00;98285.50;5055973;28;45394;-82
2024/02/09 03:07:02;;;;;;;;;0.00;0.00;;;;;15.15;100.00;98267.16;5051147;28;72163;-82
2024/02/09 03:09:28;;;;;;;;;0.00;0.00;;;;;15.20;100.00;98257.91;5072096;28;28290;-82
2024/02/09 03:11:59;;;;;;;;;0.00;0.00;;;;;15.07;100.00;98266.03;5071671;28;28528;-82
2024/02/09 03:14:27;;;;;;;;;0.00;0.00;;;;;15.16;100.00;98268.81;5071908;28;29142;-82
2024/02/09 03:16:54;;;;;;;;;0.00;0.00;;;;;15.17;100.00;98258.19;5072003;28;28440;-82
2024/02/09 03:19:20;;;;;;;;;0.00;0.00;;;;;15.22;100.00;98253.38;5071819;28;28438;-82
2024/02/09 03:21:45;;;;;;;;;0.00;0.00;;;;;15.27;100.00;98245.94;5072280;28;28329;-82
2024/02/09 03:24:10;;;;;;;;;0.00;0.00;;;;;15.20;100.00;98251.84;5071002;28;58390;-82
2024/02/09 03:26:36;;;;;;;;;0.00;0.00;;;;;15.26;100.00;98236.41;5068391;28;56648;-82
2024/02/09 03:29:01;;;;;;;;;0.00;0.00;;;;;15.23;100.00;98262.06;5072817;28;40921;-82
2024/02/09 03:31:30;;;;;;;;;0.00;0.00;;;;;15.05;100.00;98270.56;5069370;28;53263;-82
2024/02/09 03:33:56;;;;;;;;;0.00;0.00;;;;;15.11;100.00;98243.00;5071993;28;29310;-82
2024/02/09 03:36:22;;;;;;;;;0.00;0.00;;;;;15.00;100.00;98271.94;5072335;28;28468;-83
2024/02/09 03:38:48;;;;;;;;;0.00;0.00;;;;;15.14;100.00;98262.88;5076161;28;40951;-82
2024/02/09 03:41:14;;;;;;;;;0.00;0.00;;;;;15.07;100.00;98267.81;5074619;28;35110;-82
2024/02/09 03:43:39;;;;;;;;;0.00;0.00;;;;;15.10;100.00;98278.03;5069374;28;43298;-81
2024/02/09 03:46:05;;;;;;;;;0.00;0.00;;;;;15.19;100.00;98263.28;5073296;28;50005;-82
2024/02/09 03:48:31;;;;;;;;;0.00;0.00;;;;;15.20;100.00;98272.81;5071755;28;28386;-81
2024/02/09 03:50:57;;;;;;;;;0.00;0.00;;;;;15.23;100.00;98251.56;5070434;28;28428;-81
2024/02/09 03:53:22;;;;;;;;;0.00;0.00;;;;;15.15;100.00;98254.03;5071708;28;56566;-81
2024/02/09 03:55:47;;;;;;;;;0.00;0.00;;;;;15.10;100.00;98270.19;5071405;28;46521;-81
2024/02/09 03:58:12;;;;;;;;;0.00;0.00;;;;;15.10;100.00;98251.84;5065461;28;44035;-81
2024/02/09 04:00:38;;;;;;;;;0.00;0.00;;;;;15.09;100.00;98256.22;5068818;28;70135;-81
2024/02/09 04:03:03;;;;;;;;;0.00;0.00;;;;;15.07;100.00;98252.91;5068181;28;65728;-82
2024/02/09 04:05:31;;;;;;;;;0.00;0.00;;;;;15.09;100.00;98258.03;5068402;28;44046;-82
2024/02/09 04:07:56;;;;;;;;;0.00;0.00;;;;;15.09;100.00;98255.41;5069784;28;43506;-82
2024/02/09 04:10:21;;;;;;;;;0.00;0.00;;;;;15.13;100.00;98258.59;5073792;28;28288;-82
2024/02/09 04:12:47;;;;;;;;;0.00;0.00;;;;;14.97;100.00;98267.78;5070785;28;43210;-84
2024/02/09 04:15:13;;;;;;;;;0.00;0.00;;;;;15.13;100.00;98245.50;5071227;28;28927;-82
2024/02/09 04:17:38;;;;;;;;;0.00;0.00;;;;;15.12;100.00;98262.16;5074336;28;36647;-82
2024/02/09 04:20:06;;;;;;;;;0.00;0.00;;;;;15.18;100.00;98249.38;5079985;28;46922;-82
2024/02/09 04:22:31;;;;;;;;;0.00;0.00;;;;;15.10;100.00;98257.09;5081290;28;27006;-82
2024/02/09 04:24:57;;;;;;;;;0.00;0.00;;;;;15.07;100.00;98242.44;5079566;28;38145;-82
2024/02/09 04:27:22;;;;;;;;;0.00;0.00;;;;;15.07;100.00;98247.69;5071795;28;43253;-82
2024/02/09 04:29:48;;;;;;;;;0.00;0.00;;;;;15.05;100.00;98260.09;5073815;28;41581;-82
2024/02/09 04:32:13;;;;;;;;;0.00;0.00;;;;;15.07;100.00;98284.34;5072822;28;44180;-82
2024/02/09 04:34:38;;;;;;;;;0.00;0.00;;;;;15.16;100.00;98268.81;5065734;28;58658;-82
2024/02/09 04:37:04;;;;;;;;;0.00;0.00;;;;;15.11;100.00;98292.78;5066203;28;43905;-82
2024/02/09 04:39:29;;;;;;;;;0.00;0.00;;;;;15.19;100.00;98297.34;5063600;28;54926;-82
2024/02/09 04:41:55;;;;;;;;;0.00;0.00;;;;;15.28;100.00;98281.69;5061875;28;74160;-82
2024/02/09 04:44:21;;;;;;;;;0.00;0.00;;;;;15.31;100.00;98290.22;5041789;28;44375;-82
2024/02/09 04:46:47;;;;;;;;;0.00;0.00;;;;;15.27;100.00;98276.56;5058024;28;63907;-82
2024/02/09 04:49:13;;;;;;;;;0.00;0.00;;;;;15.37;100.00;98259.06;5058648;28;44940;-82
2024/02/09 04:51:39;;;;;;;;;0.00;0.00;;;;;15.44;100.00;98275.09;5057279;28;46684;-82
2024/02/09 04:54:06;;;;;;;;;0.00;0.00;;;;;15.44;100.00;98267.22;5056875;28;45286;-82
2024/02/09 04:56:32;;;;;;;;;0.00;0.00;;;;;15.38;100.00;98273.84;5057019;28;45347;-82
2024/02/09 04:58:58;;;;;;;;;0.00;0.00;;;;;15.55;100.00;98285.44;5058403;28;45457;-82
2024/02/09 05:01:27;;;;;;;;;0.00;0.00;;;;;15.60;100.00;98282.41;5055518;28;46711;-82
2024/02/09 05:03:55;;;;;;;;;1.00;1.00;;;;;15.64;100.00;98299.53;5057971;28;45385;-82
2024/02/09 05:06:21;;;;;;;;;0.00;0.00;;;;;15.73;100.00;98275.13;5056770;28;45441;-82
2024/02/09 05:08:46;;;;;;;;;0.00;0.00;;;;;15.69;100.00;98297.31;5057003;28;60518;-82
2024/02/09 05:11:11;;;;;;;;;0.00;0.00;;;;;15.74;100.00;98281.22;5056945;28;75346;-82
2024/02/09 05:13:37;;;;;;;;;0.00;0.00;;;;;15.54;100.00;98289.00;5057752;28;45414;-82
2024/02/09 05:16:02;;;;;;;;;0.00;0.00;;;;;15.55;100.00;98282.00;5058149;28;45332;-82
2024/02/09 05:18:28;;;;;;;;;0.00;0.00;;;;;15.51;100.00;98294.56;5056681;28;45511;-82
2024/02/09 05:20:53;;;;;;;;;0.00;0.00;;;;;15.49;100.00;98288.63;5056638;28;74970;-82
2024/02/09 05:23:18;;;;;;;;;0.00;0.00;;;;;15.51;100.00;98291.94;5055902;28;73567;-82
2024/02/09 05:25:44;;;;;;;;;0.00;0.00;;;;;15.49;100.00;98293.88;5055773;28;60889;-82
2024/02/09 05:28:09;;;;;;;;;0.00;0.00;;;;;15.53;100.00;98286.56;5055473;28;48613;-82
2024/02/09 05:30:35;;;;;;;;;0.00;0.00;;;;;15.52;100.00;98288.31;5056441;28;45416;-82
2024/02/09 05:33:04;;;;;;;;;0.00;0.00;;;;;15.55;100.00;98290.69;5056496;28;45388;-82
2024/02/09 05:35:29;;;;;;;;;0.00;0.00;;;;;15.43;100.00;98300.47;5057607;28;45275;-83
2024/02/09 05:37:54;;;;;;;;;0.00;0.00;;;;;15.55;100.00;98288.06;5056621;28;70467;-82
2024/02/09 05:40:20;;;;;;;;;0.00;0.00;;;;;15.64;100.00;98279.38;5056740;28;73883;-82
2024/02/09 05:42:45;;;;;;;;;0.00;0.00;;;;;15.51;100.00;98297.19;5057452;28;45350;-83
2024/02/09 05:45:11;;;;;;;;;0.00;0.00;;;;;15.59;100.00;98276.34;5057184;28;52247;-83
2024/02/09 05:47:36;;;;;;;;;0.00;0.00;;;;;15.60;100.00;98271.91;5056775;28;68228;-82
2024/02/09 05:50:01;;;;;;;;;0.00;0.00;;;;;15.64;100.00;98268.06;5055053;28;75445;-82
2024/02/09 05:52:27;;;;;;;;;0.00;0.00;;;;;15.57;100.00;98293.19;5054567;28;69626;-82
2024/02/09 05:54:53;;;;;;;;;4.00;4.00;;;;;15.62;100.00;98275.22;5057474;28;45354;-81
2024/02/09 05:57:18;;;;;;;;;0.00;0.00;;;;;15.63;100.00;98277.72;5057484;28;45318;-81
2024/02/09 05:59:44;;;;;;;;;0.00;0.00;;;;;15.62;100.00;98262.13;5056450;28;73942;-81
2024/02/09 06:02:09;;;;;;;;;0.00;0.00;;;;;15.68;100.00;98282.56;5056333;28;66826;-82
2024/02/09 06:04:37;;;;;;;;;0.00;0.00;;;;;15.77;100.00;98273.91;5057317;28;45337;-82
2024/02/09 06:07:02;;;;;;;;;0.00;0.00;;;;;15.79;100.00;98284.28;5055850;28;45511;-82
2024/02/09 06:09:29;;;;;;;;;0.00;0.00;;;;;15.83;100.00;98267.28;5056508;28;61261;-80
2024/02/09 06:11:57;;;;;;;;;0.00;0.00;;;;;15.72;100.00;98288.38;5055785;28;45269;-82
2024/02/09 06:14:22;;;;;;;;;0.00;0.00;;;;;15.78;100.00;98293.91;5057531;28;45378;-82
2024/02/09 06:16:48;;;;;;;;;0.75;0.75;;;;;15.61;100.00;98303.25;5056063;28;45428;-82
2024/02/09 06:19:13;;;;;;;;;0.00;0.00;;;;;15.57;100.00;98298.44;5056852;28;45998;-83
2024/02/09 06:21:40;;;;;;;;;0.00;0.00;;;;;15.67;100.00;98300.09;5038626;28;45400;-82
2024/02/09 06:24:05;;;;;;;;;0.00;0.00;;;;;15.77;100.00;98292.25;5055788;28;45434;-81
2024/02/09 06:26:31;;;;;;;;;0.00;0.00;;;;;15.66;100.00;98295.81;5056832;28;45414;-82
2024/02/09 06:28:56;;;;;;;;;0.00;0.00;;;;;15.71;100.00;98281.44;5055926;28;75363;-81
2024/02/09 06:31:25;;;;;;;;;0.00;0.00;;;;;15.72;100.00;98297.06;5056073;28;67636;-81
2024/02/09 06:33:54;;;;;;;;;0.00;0.00;;;;;15.67;100.00;98305.34;5056852;28;45316;-81
2024/02/09 06:36:21;;;;;;;;;0.00;0.00;;;;;15.73;100.00;98298.72;5056729;28;45256;-82
2024/02/09 06:38:47;;;;;;;;;0.00;0.00;;;;;15.67;100.00;98302.72;5055551;28;45909;-82
2024/02/09 06:41:12;;;;;;;;;0.00;0.00;;;;;15.80;100.00;98305.09;5054216;28;45400;-82
2024/02/09 06:43:38;;;;;;;;;0.00;0.00;;;;;15.83;100.00;98307.44;5053046;28;45239;-81
2024/02/09 06:46:04;;;;;;;;;0.00;0.00;;;;;15.87;100.00;98295.72;5053708;28;45474;-81
2024/02/09 06:48:30;;;;;;;;;1.00;0.00;;;;;15.76;100.00;98324.69;5042770;28;48310;-80
2024/02/09 06:50:58;;;;;;;;;0.00;0.00;;;;;15.85;100.00;98321.25;5050351;28;45451;-78
2024/02/09 06:53:24;;;;;;;;;0.00;0.00;;;;;15.90;100.00;98318.22;5055400;28;45348;-78
2024/02/09 06:55:52;;;;;;;;;0.00;0.00;;;;;15.86;100.00;98322.91;5041718;28;45443;-78
2024/02/09 06:58:19;;;;;;;;;0.00;0.00;;;;;15.87;100.00;98327.19;5040866;28;45672;-78
2024/02/09 07:00:44;;;;;;;;;0.00;0.00;;;;;15.93;100.00;98323.19;5050406;28;45466;-78
2024/02/09 07:03:14;;;;;;;;;0.00;0.00;;;;;15.87;100.00;98340.31;5045833;28;45502;-78
2024/02/09 07:05:40;;;;;;;;;0.00;0.00;;;;;15.86;100.00;98338.66;5051939;28;45440;-79
2024/02/09 07:08:07;;;;;;;;;0.00;0.00;;;;;15.92;100.00;98333.84;5048373;28;46379;-78
2024/02/09 07:10:33;;;;;;;;;0.00;0.00;;;;;15.85;100.00;98350.09;5044025;28;45456;-77
2024/02/09 07:12:58;;;;;;;;;0.00;0.00;;;;;16.00;100.00;98347.91;5051828;28;45714;-78
2024/02/09 07:15:23;;;;;;;;;0.00;0.00;;;;;15.97;100.00;98360.47;5036433;28;45229;-78
2024/02/09 07:17:50;;;;;;;;;0.00;0.00;;;;;15.95;100.00;98362.41;5046226;28;75424;-78
2024/02/09 07:20:16;;;;;;;;;0.00;0.00;;;;;15.95;100.00;98352.72;5049444;28;45244;-77
2024/02/09 07:22:42;;;;;;;;;0.00;0.00;;;;;15.93;100.00;98362.53;5043284;28;45542;-77
2024/02/09 07:25:07;;;;;;;;;0.00;0.00;;;;;15.97;100.00;98352.59;5045262;28;45284;-77
2024/02/09 07:27:33;;;;;;;;;0.00;0.00;;;;;15.83;100.00;98377.44;5053528;28;46193;-79
2024/02/09 07:29:59;;;;;;;;;0.00;0.00;;;;;15.83;100.00;98366.97;5055030;28;67110;-79
2024/02/09 07:32:24;;;;;;;;;0.00;0.00;;;;;15.89;100.00;98361.16;5055710;28;45444;-79
2024/02/09 07:34:52;;;;;;;;;0.00;0.00;;;;;15.83;100.00;98369.59;5055029;28;70169;-79
2024/02/09 07:37:18;;;;;;;;;0.00;0.00;;;;;15.85;100.00;98371.09;5051286;28;47654;-79
2024/02/09 07:39:43;;;;;;;;;0.00;0.00;;;;;15.85;100.00;98363.22;5053243;28;44257;-79
2024/02/09 07:42:09;;;;;;;;;0.00;0.00;;;;;15.89;100.00;98362.97;5056005;28;45176;-79
2024/02/09 07:44:36;;;;;;;;;0.00;0.00;;;;;15.84;100.00;98360.72;5037678;28;45373;-78
2024/02/09 07:47:04;;;;;;;;;0.00;0.00;;;;;15.86;100.00;98364.03;5035397;28;45550;-79
2024/02/09 07:49:31;;;;;;;;;0.00;0.00;;;;;15.92;100.00;98353.03;5042798;28;45358;-80
2024/02/09 07:52:01;;;;;;;;;0.00;0.00;;;;;15.89;100.00;98342.78;5056891;28;45274;-81
2024/02/09 07:54:28;;;;;;;;;0.00;0.00;;;;;15.93;100.00;98359.91;5059293;28;45413;-79
2024/02/09 07:56:54;;;;;;;;;0.00;0.00;;;;;15.93;100.00;98366.97;5041351;28;47177;-80
2024/02/09 07:59:20;;;;;;;;;0.00;0.00;;;;;15.94;100.00;98356.34;5054208;28;71710;-80
2024/02/09 08:01:45;;;;;;;;;0.00;0.00;;;;;15.98;100.00;98349.03;5046936;28;45505;-80
2024/02/09 08:04:11;;;;;;;;;0.00;0.00;;;;;15.99;100.00;98353.28;5042671;28;45559;-80
2024/02/09 08:06:38;;;;;;;;;0.00;0.00;;;;;15.98;100.00;98352.47;5058487;28;46270;-80
2024/02/09 08:09:04;;;;;;;;;0.00;0.00;;;;;16.14;100.00;98358.97;5056988;28;45451;-80
2024/02/09 08:11:29;;;;;;;;;0.00;0.00;;;;;16.05;100.00;98358.00;5058378;28;45424;-80
2024/02/09 08:13:57;;;;;;;;;0.00;0.00;;;;;16.15;100.00;98361.44;5055807;28;68387;-81
2024/02/09 08:16:22;;;;;;;;;0.00;0.00;;;;;15.99;100.00;98375.13;5038266;28;46135;-80
2024/02/09 08:18:49;;;;;;;;;0.00;0.00;;;;;16.03;100.00;98366.00;5038108;28;45322;-80
2024/02/09 08:21:14;;;;;;;;;0.00;0.00;;;;;15.97;100.00;98377.06;5040423;28;45360;-80
2024/02/09 08:23:40;;;;;;;;;3.00;3.00;;;;;16.06;100.00;98368.38;5058166;28;45374;-80
2024/02/09 08:26:06;;;;;;;;;0.00;0.00;;;;;16.11;100.00;98375.00;5057548;28;69916;-80
2024/02/09 08:28:32;;;;;;;;;0.00;0.00;;;;;16.08;100.00;98370.84;5057321;28;45405;-80
2024/02/09 08:30:58;;;;;;;;;0.00;0.00;;;;;16.07;100.00;98363.94;5057964;28;45283;-79
2024/02/09 08:33:23;;;;;;;;;0.00;0.00;;;;;16.07;100.00;98366.56;5058444;28;45365;-80
2024/02/09 08:35:49;;;;;;;;;0.00;0.00;;;;;15.99;100.00;98371.66;5056081;28;72906;-80
2024/02/09 08:38:15;;;;;;;;;0.00;0.00;;;;;16.12;100.00;98366.13;5057204;28;45459;-79
2024/02/09 08:40:40;;;;;;;;;0.00;0.00;;;;;16.14;100.00;98379.94;5047383;28;45827;-80
2024/02/09 08:43:05;;;;;;;;;0.67;0.00;;;;;16.61;100.00;98380.09;5057390;28;49412;-81
2024/02/09 08:45:30;;;;;;;;;1.00;1.00;;;;;16.22;100.00;98378.31;5056931;28;52396;-79
2024/02/09 08:47:56;;;;;;;;;0.00;0.00;;;;;16.23;100.00;98387.00;5037203;28;73112;-79
2024/02/09 08:50:21;;;;;;;;;0.00;0.00;;;;;16.26;100.00;98369.19;5051866;28;68638;-80
2024/02/09 08:52:46;;;;;;;;;0.00;0.00;;;;;16.23;100.00;98385.22;5056900;28;70447;-78
2024/02/09 08:55:12;;;;;;;;;0.00;0.00;;;;;16.30;100.00;98372.38;5049334;28;75297;-80
2024/02/09 08:57:37;;;;;;;;;0.00;0.00;;;;;16.33;100.00;98377.34;5055048;28;45394;-79
2024/02/09 09:00:05;;;;;;;;;0.00;0.00;;;;;16.34;100.00;98372.91;5055502;28;45521;-80
2024/02/09 09:02:30;;;;;;;;;0.00;0.00;;;;;16.36;100.00;98376.22;5057103;28;45605;-79
2024/02/09 09:04:57;;;;;;;;;0.00;0.00;;;;;16.38;100.00;98384.78;5054701;28;72996;-79
2024/02/09 09:07:22;;;;;;;;;0.00;0.00;;;;;16.43;100.00;98388.66;5056323;28;45423;-79
2024/02/09 09:09:48;;;;;;;;;0.00;0.00;;;;;16.41;100.00;98390.59;5052786;28;45419;-79
2024/02/09 09:12:13;;;;;;;;;0.00;0.00;;;;;16.38;100.00;98416.28;5046033;28;68775;-80
2024/02/09 09:14:39;;;;;;;;;1.00;1.00;;;;;16.39;100.00;98400.41;5043930;28;61984;-79
2024/02/09 09:17:05;;;;;;;;;0.00;0.00;;;;;16.44;100.00;98394.75;5052154;28;45454;-80
2024/02/09 09:19:30;;;;;;;;;0.00;0.00;;;;;16.37;100.00;98404.16;5047552;28;63419;-80
2024/02/09 09:21:55;;;;;;;;;0.00;0.00;;;;;16.31;100.00;98418.66;5044573;28;68452;-80
2024/02/09 09:24:21;;;;;;;;;0.00;0.00;;;;;16.39;100.00;98399.59;5056470;28;45459;-79
2024/02/09 09:26:46;;;;;;;;;0.00;0.00;;;;;16.33;100.00;98400.97;5039784;28;45515;-78
2024/02/09 09:29:15;;;;;;;;;0.00;0.00;;;;;16.31;100.00;98399.47;5035274;28;45530;-80
2024/02/09 09:31:41;;;;;;;;;0.00;0.00;;;;;16.38;100.00;98398.78;5036045;28;46991;-80
2024/02/09 09:34:08;;;;;;;;;0.00;0.00;;;;;16.42;100.00;98394.91;5037905;28;45967;-80
2024/02/09 09:36:34;;;;;;;;;0.00;0.00;;;;;16.51;100.00;98403.75;5036013;28;45589;-80
2024/02/09 09:39:05;;;;;;;;;0.00;0.00;;;;;16.61;100.00;98398.47;5037351;28;45526;-80
2024/02/09 09:41:34;;;;;;;;;0.00;0.00;;;;;16.71;100.00;98412.41;5037895;28;45474;-80
2024/02/09 09:43:59;;;;;;;;;0.00;0.00;;;;;16.75;100.00;98415.59;5036284;28;47416;-79
2024/02/09 09:46:26;;;;;;;;;0.00;0.00;;;;;16.63;100.00;98417.53;5034928;28;47073;-80
2024/02/09 09:48:54;;;;;;;;;0.00;0.00;;;;;16.68;100.00;98417.97;5035937;28;68279;-80
2024/02/09 09:51:20;;;;;;;;;0.00;0.00;;;;;16.73;100.00;98409.66;5037155;28;45962;-80
2024/02/09 09:53:47;;;;;;;;;0.00;0.00;;;;;16.82;100.00;98420.16;5035135;28;45653;-80
2024/02/09 09:56:13;;;;;;;;;0.00;0.00;;;;;16.98;100.00;98401.19;5034369;28;46912;-80
2024/02/09 09:58:40;;;;;;;;;0.00;0.00;;;;;16.97;100.00;98425.00;5034822;28;70130;-80
2024/02/09 10:01:08;;;;;;;;;0.00;0.00;;;;;17.00;100.00;98422.91;5032309;28;46188;-80
2024/02/09 10:03:36;;;;;;;;;0.00;0.00;;;;;17.02;100.00;98410.44;5032816;28;46265;-80
2024/02/09 10:06:02;;;;;;;;;0.00;0.00;;;;;17.02;100.00;98417.50;5036504;28;45619;-80
2024/02/09 10:08:28;;;;;;;;;0.00;0.00;;;;;17.08;100.00;98419.56;5039532;28;45786;-79
2024/02/09 10:10:55;;;;;;;;;0.00;0.00;;;;;16.99;100.00;98425.66;5034090;28;48340;-80
2024/02/09 10:13:22;;;;;;;;;0.00;0.00;;;;;17.10;100.00;98420.25;5034823;28;46429;-80
2024/02/09 10:15:47;;;;;;;;;0.00;0.00;;;;;17.10;100.00;98417.63;5036581;28;45522;-79
2024/02/09 10:18:14;;;;;;;;;0.00;0.00;;;;;17.18;100.00;98406.41;5038296;28;45569;-79
2024/02/09 10:20:46;;;;;;;;;0.00;0.00;;;;;17.25;100.00;98417.16;5036141;28;70257;-80
2024/02/09 10:23:19;;;;;;;;;0.00;0.00;;;;;17.27;100.00;98412.59;5035400;28;46657;-81
2024/02/09 10:25:44;;;;;;;;;0.00;0.00;;;;;17.32;100.00;98398.03;5038223;28;45545;-78
2024/02/09 10:28:11;;;;;;;;;0.00;0.00;;;;;17.35;100.00;98410.09;5046965;28;47109;-79
2024/02/09 10:30:36;;;;;;;;;0.00;0.00;;;;;17.50;100.00;98402.56;5050303;28;45542;-79
2024/02/09 10:33:02;;;;;;;;;0.00;0.00;;;;;17.42;100.00;98421.66;5050249;28;45443;-78
2024/02/09 10:35:28;;;;;;;;;0.00;0.00;;;;;17.39;100.00;98412.28;5056191;28;45362;-79
2024/02/09 10:37:57;;;;;;;;;0.00;0.00;;;;;17.40;100.00;98418.34;5056283;28;45534;-80
2024/02/09 10:40:23;;;;;;;;;0.00;0.00;;;;;17.46;100.00;98414.31;5056457;28;45259;-79
2024/02/09 10:42:50;;;;;;;;;0.00;0.00;;;;;17.40;100.00;98416.56;5055660;28;46888;-79
2024/02/09 10:45:16;;;;;;;;;0.00;0.00;;;;;17.34;100.00;98418.94;5055060;28;45276;-79
2024/02/09 10:47:43;;;;;;;;;0.00;0.00;;;;;17.39;100.00;98408.81;5053900;28;69250;-79
2024/02/09 10:50:10;;;;;;;;;0.00;0.00;;;;;17.33;100.00;98420.75;5053296;28;45521;-79
2024/02/09 10:52:42;;;;;;;;;0.00;0.00;;;;;17.45;100.00;98407.41;5055815;28;45436;-80
2024/02/09 10:55:09;;;;;;;;;0.00;0.00;;;;;17.58;100.00;98398.19;5052757;28;45404;-78
2024/02/09 10:57:35;;;;;;;;;0.00;0.00;;;;;17.54;100.00;98409.19;5048874;28;45362;-79
2024/02/09 11:00:03;;;;;;;;;0.00;0.00;;;;;17.38;100.00;98426.41;5038843;28;45768;-79
2024/02/09 11:02:29;;;;;;;;;1.00;1.00;;;;;17.37;100.00;98416.84;5035963;28;46509;-79
2024/02/09 11:04:56;;;;;;;;;0.00;0.00;;;;;17.48;100.00;98399.25;5039061;28;45613;-76
2024/02/09 11:07:21;;;;;;;;;0.00;0.00;;;;;17.76;100.00;98407.97;5031959;28;45760;-79
2024/02/09 11:09:47;;;;;;;;;0.00;0.00;;;;;17.63;100.00;98410.94;5034262;28;45631;-79
2024/02/09 11:12:13;;;;;;;;;0.00;0.00;;;;;17.73;100.00;98403.81;5034119;28;75582;-79
2024/02/09 11:14:39;;;;;;;;;0.00;0.00;;;;;17.78;100.00;98401.56;5035518;28;45328;-77
2024/02/09 11:17:08;;;;;;;;;0.00;0.00;;;;;17.84;100.00;98407.22;5036560;28;45450;-79
2024/02/09 11:19:38;;;;;;;;;0.00;0.00;;;;;17.82;100.00;98402.09;5047978;28;45462;-78
2024/02/09 11:22:04;;;;;;;;;0.00;0.00;;;;;17.76;100.00;98402.69;5054548;28;45702;-78
2024/02/09 11:24:30;;;;;;;;;0.00;0.00;;;;;17.83;100.00;98393.25;5054374;28;45461;-78
2024/02/09 11:26:59;;;;;;;;;0.00;0.00;;;;;17.87;100.00;98393.81;5053829;28;45315;-78
2024/02/09 11:29:24;;;;;;;;;0.00;0.00;;;;;17.90;100.00;98386.41;5057239;28;45306;-78
2024/02/09 11:31:52;;;;;;;;;0.00;0.00;;;;;18.08;100.00;98398.78;5053102;28;45532;-77
2024/02/09 11:34:20;;;;;;;;;0.00;0.00;;;;;18.08;100.00;98404.88;5053951;28;45557;-79
2024/02/09 11:36:46;;;;;;;;;0.00;0.00;;;;;18.20;100.00;98397.56;5049957;28;45442;-80
2024/02/09 11:39:12;;;;;;;;;0.00;0.00;;;;;18.28;100.00;98402.09;5040428;28;45485;-80
2024/02/09 11:41:37;;;;;;;;;0.00;0.00;;;;;18.34;100.00;98383.88;5041169;28;48506;-78
2024/02/09 11:44:04;;;;;;;;;0.00;0.00;;;;;18.26;100.00;98378.56;5049722;28;45799;-79
2024/02/09 11:46:30;;;;;;;;;0.00;0.00;;;;;18.17;100.00;98374.19;5052746;28;45467;-78
2024/02/09 11:48:56;;;;;;;;;0.00;0.00;;;;;18.48;100.00;98373.78;5037521;28;45359;-78
2024/02/09 11:51:21;;;;;;;;;0.00;0.00;;;;;18.39;100.00;98370.28;5055332;28;45552;-77
2024/02/09 11:53:51;;;;;;;;;0.00;0.00;;;;;18.32;100.00;98351.59;5054476;28;45359;-80
2024/02/09 11:56:17;;;;;;;;;0.00;0.00;;;;;18.33;100.00;98352.44;5051575;28;45401;-79
2024/02/09 11:58:44;;;;;;;;;0.00;0.00;;;;;18.35;100.00;98342.59;5036796;28;45444;-78
2024/02/09 12:01:09;;;;;;;;;0.00;0.00;;;;;18.22;100.00;98352.66;5037413;28;45687;-80
2024/02/09 12:03:35;;;;;;;;;0.00;0.00;;;;;18.25;100.00;98347.91;5043027;28;45711;-80
2024/02/09 12:06:02;;;;;;;;;0.00;0.00;;;;;18.21;100.00;98346.56;5035277;28;69255;-78
2024/02/09 12:08:29;;;;;;;;;0.00;0.00;;;;;18.16;100.00;98341.78;5052327;28;45560;-78
2024/02/09 12:10:56;;;;;;;;;0.00;0.00;;;;;18.11;100.00;98336.13;5054244;28;46735;-78
2024/02/09 12:13:22;;;;;;;;;0.00;0.00;;;;;18.09;100.00;98331.97;5039581;28;45481;-77
2024/02/09 12:15:47;;;;;;;;;0.00;0.00;;;;;18.04;100.00;98339.53;5037299;28;45362;-77
2024/02/09 12:18:13;;;;;;;;;0.00;0.00;;;;;18.04;100.00;98335.06;5048482;28;47517;-77
2024/02/09 12:20:39;;;;;;;;;0.00;0.00;;;;;18.15;100.00;98320.88;5049667;28;61867;-77
2024/02/09 12:23:05;;;;;;;;;0.00;0.00;;;;;18.22;100.00;98326.34;5033344;28;45330;-78
2024/02/09 12:25:37;;;;;;;;;0.00;0.00;;;;;18.28;100.00;98323.94;5041613;28;65375;-77
2024/02/09 12:28:04;;;;;;;;;0.00;0.00;;;;;18.25;100.00;98326.03;5044889;28;45308;-77
2024/02/09 12:30:29;;;;;;;;;0.00;0.00;;;;;18.34;100.00;98317.22;5038276;28;46287;-78
2024/02/09 12:32:56;;;;;;;;;0.00;0.00;;;;;18.51;100.00;98318.97;5053728;28;73210;-77
2024/02/09 12:35:29;;;;;;;;;0.00;0.00;;;;;18.48;100.00;98314.03;5034278;28;45787;-78
2024/02/09 12:37:57;;;;;;;;;0.00;0.00;;;;;18.47;100.00;98314.19;5030673;28;45591;-77
2024/02/09 12:40:25;;;;;;;;;0.00;0.00;;;;;18.54;100.00;98308.16;5039749;28;48527;-77
2024/02/09 12:42:53;;;;;;;;;0.00;0.00;;;;;18.54;100.00;98317.88;5035657;28;48065;-78
2024/02/09 12:45:19;;;;;;;;;0.00;0.00;;;;;18.64;100.00;98297.50;5036548;28;45495;-79
2024/02/09 12:47:46;;;;;;;;;0.00;0.00;;;;;18.68;100.00;98313.81;5037834;28;45554;-78
2024/02/09 12:50:12;;;;;;;;;0.00;0.00;;;;;18.67;100.00;98291.13;5031948;28;45587;-78
2024/02/09 12:52:39;;;;;;;;;0.00;0.00;;;;;18.56;100.00;98308.00;5036773;28;45657;-77
2024/02/09 12:55:05;;;;;;;;;0.00;0.00;;;;;18.55;100.00;98287.91;5038949;28;45939;-79
2024/02/09 12:57:30;;;;;;;;;0.00;0.00;;;;;18.60;100.00;98301.44;5036264;28;47054;-78
2024/02/09 12:59:55;;;;;;;;;0.00;0.00;;;;;18.52;100.00;98306.66;5035085;28;76383;-79
2024/02/09 13:02:22;;;;;;;;;0.00;0.00;;;;;18.65;100.00;98285.19;5037295;28;68891;-78
2024/02/09 13:04:48;;;;;;;;;0.00;0.00;;;;;18.58;100.00;98300.78;5047432;28;45750;-78
2024/02/09 13:07:14;;;;;;;;;0.00;0.00;;;;;18.54;100.00;98305.50;5053985;28;45619;-78
2024/02/09 13:09:40;;;;;;;;;0.00;0.00;;;;;18.53;100.00;98295.94;5045846;28;46446;-77